Liberty of The Seas — C6VQ8 — position and weather

sailwx.info

Track history (hours):
 
Tides and Currents Weather Stations Pressure Air Temp Water Temp Dewpoint Dewpoint Depression Visibility Wind Speed Wind Dir Waves Ship Positions

Liberty of The Seas

Last reported at 2014-Dec-15 22:33 UTC. Time now 2014-Dec-19 03:12 UTC.
Position N 26°00' W 080°02'.

Type: Passenger vessel. MMSI: 309436000.

Date/timePositionNaut miles runAvg speedWind from/ knotsBaromVisibWave heightAir tempDewpointWater temp
2014-Dec-15 22:33N 26°00' W 080°02'6 5.6
2014-Dec-15 21:26N 26°05' W 080°07'0 0.0
2014-Dec-15 20:29N 26°05' W 080°07'0 0.0
2014-Dec-15 19:29N 26°05' W 080°07'0 0.0
2014-Dec-15 18:32N 26°05' W 080°07'0 0.0
2014-Dec-15 17:32N 26°05' W 080°07'0 0.0
2014-Dec-15 16:32N 26°05' W 080°07'0 0.0
2014-Dec-15 15:32N 26°05' W 080°07'0 0.0
2014-Dec-15 14:32N 26°05' W 080°07'0 0.0
2014-Dec-15 13:32N 26°05' W 080°07'0 0.0
2014-Dec-15 12:32N 26°05' W 080°07'0 0.2
2014-Dec-15 11:33N 26°06' W 080°07'9 9.1
2014-Dec-15 10:33N 25°59' W 079°60'50714.5
2014-Dec-13 23:33N 20°30' W 086°59'1 1.1
2014-Dec-13 22:29N 20°29' W 086°59'0 0.0
2014-Dec-13 21:29N 20°29' W 086°59'0 0.0
2014-Dec-13 20:29N 20°29' W 086°59'0 0.0
2014-Dec-13 16:29N 20°29' W 086°59'0 0.0
2014-Dec-13 14:23N 20°29' W 086°59'0 0.0
2014-Dec-13 13:29N 20°29' W 086°59'0 0.0
2014-Dec-13 12:29N 20°29' W 086°59'4 4.7
2014-Dec-13 11:33N 20°33' W 086°58'50013.5
2014-Dec-11 22:33N 25°57' W 080°02'9 8.4
2014-Dec-11 21:29N 26°05' W 080°07'0 0.0
2014-Dec-11 20:29N 26°05' W 080°07'0 0.0
2014-Dec-11 19:32N 26°05' W 080°07'0 0.0
2014-Dec-11 18:32N 26°05' W 080°07'0 0.0
2014-Dec-11 17:32N 26°05' W 080°07'0 0.0
2014-Dec-11 16:32N 26°05' W 080°07'0 0.0
2014-Dec-11 15:32N 26°05' W 080°07'0 0.0
2014-Dec-11 14:20N 26°05' W 080°07'0 0.0
2014-Dec-11 13:32N 26°05' W 080°07'0 0.0
2014-Dec-11 12:23N 26°05' W 080°07'0 0.3
2014-Dec-11 11:34N 26°06' W 080°07'10 9.9
2014-Dec-11 10:34N 25°59' W 079°59'50714.9
2014-Dec-10 00:33N 20°29' W 086°59'1 0.3
2014-Dec-09 22:29N 20°29' W 086°59'0 0.0
2014-Dec-09 19:17N 20°29' W 086°59'0 0.0
2014-Dec-09 18:29N 20°29' W 086°59'0 0.0
2014-Dec-09 17:17N 20°29' W 086°59'0 0.0
2014-Dec-09 16:29N 20°29' W 086°59'0 0.0
2014-Dec-09 15:32N 20°29' W 086°59'0 0.0
2014-Dec-09 14:32N 20°29' W 086°59'3 2.6
2014-Dec-09 13:33N 20°28' W 087°01'  
2014-Dec-07 00:00N 25°30' W 080°00'2718.0 050 / 141019.0 5.4 1.022.3 27.0
2014-Dec-06 22:31N 25°57' W 080°02'1010.3
2014-Dec-06 21:34N 26°05' W 080°07'0 0.0
2014-Dec-06 20:23N 26°05' W 080°07'0 0.0
2014-Dec-06 19:23N 26°05' W 080°07'0 0.0
2014-Dec-06 18:26N 26°05' W 080°07'0 0.0
2014-Dec-06 17:26N 26°05' W 080°07'0 0.0
2014-Dec-06 16:26N 26°05' W 080°07'0 0.0
2014-Dec-06 15:29N 26°05' W 080°07'0 0.0
2014-Dec-06 14:29N 26°05' W 080°07'0 0.0
2014-Dec-06 13:32N 26°05' W 080°07'0 0.0
2014-Dec-06 12:32N 26°05' W 080°07'0 0.2
2014-Dec-06 11:33N 26°06' W 080°07'1110.7
2014-Dec-06 10:34N 25°57' W 079°59'  
Track history (hours):
 
Tides and Currents Weather Stations Pressure Air Temp Water Temp Dewpoint Dewpoint Depression Visibility Wind Speed Wind Dir Waves Ship Positions

Liberty of The Seas

Last reported at 2014-Dec-15 22:33 UTC. Time now 2014-Dec-19 03:12 UTC.
Position N 26°00' W 080°02'.

Type: Passenger vessel. MMSI: 309436000.

Date/timePositionNaut miles runAvg speedWind from/ knotsBaromVisibWave heightAir tempDewpointWater temp
2014-Dec-15 22:33N 26°00' W 080°02'6 5.6
2014-Dec-15 21:26N 26°05' W 080°07'0 0.0
2014-Dec-15 20:29N 26°05' W 080°07'0 0.0
2014-Dec-15 19:29N 26°05' W 080°07'0 0.0
2014-Dec-15 18:32N 26°05' W 080°07'0 0.0
2014-Dec-15 17:32N 26°05' W 080°07'0 0.0
2014-Dec-15 16:32N 26°05' W 080°07'0 0.0
2014-Dec-15 15:32N 26°05' W 080°07'0 0.0
2014-Dec-15 14:32N 26°05' W 080°07'0 0.0
2014-Dec-15 13:32N 26°05' W 080°07'0 0.0
2014-Dec-15 12:32N 26°05' W 080°07'0 0.2
2014-Dec-15 11:33N 26°06' W 080°07'9 9.1
2014-Dec-15 10:33N 25°59' W 079°60'50714.5
2014-Dec-13 23:33N 20°30' W 086°59'1 1.1
2014-Dec-13 22:29N 20°29' W 086°59'0 0.0
2014-Dec-13 21:29N 20°29' W 086°59'0 0.0
2014-Dec-13 20:29N 20°29' W 086°59'0 0.0
2014-Dec-13 16:29N 20°29' W 086°59'0 0.0
2014-Dec-13 14:23N 20°29' W 086°59'0 0.0
2014-Dec-13 13:29N 20°29' W 086°59'0 0.0
2014-Dec-13 12:29N 20°29' W 086°59'4 4.7
2014-Dec-13 11:33N 20°33' W 086°58'50013.5
2014-Dec-11 22:33N 25°57' W 080°02'9 8.4
2014-Dec-11 21:29N 26°05' W 080°07'0 0.0
2014-Dec-11 20:29N 26°05' W 080°07'0 0.0
2014-Dec-11 19:32N 26°05' W 080°07'0 0.0
2014-Dec-11 18:32N 26°05' W 080°07'0 0.0
2014-Dec-11 17:32N 26°05' W 080°07'0 0.0
2014-Dec-11 16:32N 26°05' W 080°07'0 0.0
2014-Dec-11 15:32N 26°05' W 080°07'0 0.0
2014-Dec-11 14:20N 26°05' W 080°07'0 0.0
2014-Dec-11 13:32N 26°05' W 080°07'0 0.0
2014-Dec-11 12:23N 26°05' W 080°07'0 0.3
2014-Dec-11 11:34N 26°06' W 080°07'10 9.9
2014-Dec-11 10:34N 25°59' W 079°59'50714.9
2014-Dec-10 00:33N 20°29' W 086°59'1 0.3
2014-Dec-09 22:29N 20°29' W 086°59'0 0.0
2014-Dec-09 19:17N 20°29' W 086°59'0 0.0
2014-Dec-09 18:29N 20°29' W 086°59'0 0.0
2014-Dec-09 17:17N 20°29' W 086°59'0 0.0
2014-Dec-09 16:29N 20°29' W 086°59'0 0.0
2014-Dec-09 15:32N 20°29' W 086°59'0 0.0
2014-Dec-09 14:32N 20°29' W 086°59'3 2.6
2014-Dec-09 13:33N 20°28' W 087°01'  
2014-Dec-07 00:00N 25°30' W 080°00'2718.0 050 / 141019.0 5.4 1.022.3 27.0
2014-Dec-06 22:31N 25°57' W 080°02'1010.3
2014-Dec-06 21:34N 26°05' W 080°07'0 0.0
2014-Dec-06 20:23N 26°05' W 080°07'0 0.0
2014-Dec-06 19:23N 26°05' W 080°07'0 0.0
2014-Dec-06 18:26N 26°05' W 080°07'0 0.0
2014-Dec-06 17:26N 26°05' W 080°07'0 0.0
2014-Dec-06 16:26N 26°05' W 080°07'0 0.0
2014-Dec-06 15:29N 26°05' W 080°07'0 0.0
2014-Dec-06 14:29N 26°05' W 080°07'0 0.0
2014-Dec-06 13:32N 26°05' W 080°07'0 0.0
2014-Dec-06 12:32N 26°05' W 080°07'0 0.2
2014-Dec-06 11:33N 26°06' W 080°07'1110.7
2014-Dec-06 10:34N 25°57' W 079°59'  

Dump ship's entire track history